createdAt,value
2022-08-17T00:00:38.018Z,97919.16
2022-08-17T00:03:13.654Z,97918.38
2022-08-17T00:05:50.882Z,97923.06
2022-08-17T00:08:20.452Z,97917.53
2022-08-17T00:10:48.148Z,97913.94
2022-08-17T00:13:25.934Z,97919.81
2022-08-17T00:15:57.822Z,97913.47
2022-08-17T00:19:01.850Z,97910.31
2022-08-17T00:21:11.965Z,97916.63
2022-08-17T00:23:47.805Z,97918.19
2022-08-17T00:26:16.081Z,97915.00
2022-08-17T00:29:03.264Z,97905.50
2022-08-17T00:31:29.764Z,97914.94
2022-08-17T00:33:56.357Z,97907.81
2022-08-17T00:36:25.225Z,97906.16
2022-08-17T00:38:52.097Z,97897.50
2022-08-17T00:41:22.384Z,97898.28
2022-08-17T00:43:52.515Z,97901.44
2022-08-17T00:46:28.242Z,97899.06
2022-08-17T00:48:55.787Z,97897.09
2022-08-17T00:51:43.775Z,97893.53
2022-08-17T00:54:15.106Z,97887.19
2022-08-17T00:56:48.778Z,97901.31
2022-08-17T00:59:23.113Z,97900.88
2022-08-17T01:01:52.135Z,97896.13
2022-08-17T01:04:20.949Z,97890.19
2022-08-17T01:06:49.591Z,97894.91
2022-08-17T01:09:17.401Z,97894.91
2022-08-17T01:11:48.757Z,97896.13
2022-08-17T01:14:15.279Z,97895.75
2022-08-17T01:16:41.791Z,97887.44
2022-08-17T01:19:16.945Z,97884.66
2022-08-17T01:22:02.872Z,97885.41
2022-08-17T01:24:29.954Z,97883.81
2022-08-17T01:26:57.665Z,97884.53
2022-08-17T01:29:26.878Z,97889.28
2022-08-17T01:31:57.335Z,97884.94
2022-08-17T01:34:32.758Z,97893.59
2022-08-17T01:37:10.704Z,97892.34
2022-08-17T01:39:45.737Z,97906.09
2022-08-17T01:42:29.455Z,97908.06
2022-08-17T01:45:01.669Z,97900.19
2022-08-17T01:47:28.107Z,97898.56
2022-08-17T01:49:59.900Z,97893.03
2022-08-17T01:52:27.547Z,97892.19
2022-08-17T01:54:54.875Z,97900.84
2022-08-17T01:57:24.164Z,97907.88
2022-08-17T01:59:50.604Z,97901.56
2022-08-17T02:02:31.051Z,97902.34
2022-08-17T02:04:58.005Z,97891.34
2022-08-17T02:07:24.639Z,97895.28
2022-08-17T02:09:53.625Z,97898.78
2022-08-17T02:12:38.865Z,97903.06
2022-08-17T02:15:07.958Z,97908.56
2022-08-17T02:17:35.083Z,97909.69
2022-08-17T02:20:01.967Z,97901.41
2022-08-17T02:22:31.122Z,97904.47
2022-08-17T02:25:02.384Z,97905.59
2022-08-17T02:27:29.298Z,97910.69
2022-08-17T02:29:55.803Z,97907.94
2022-08-17T02:32:27.321Z,97912.69
2022-08-17T02:34:54.554Z,97898.13
2022-08-17T02:37:20.997Z,97900.88
2022-08-17T02:39:47.722Z,97900.09
2022-08-17T02:42:16.802Z,97910.72
2022-08-17T02:44:44.915Z,97907.63
2022-08-17T02:47:11.934Z,97913.91
2022-08-17T02:49:38.376Z,97902.47
2022-08-17T02:52:07.223Z,97905.22
2022-08-17T02:54:41.521Z,97905.97
2022-08-17T02:57:09.836Z,97903.63
2022-08-17T02:59:36.689Z,97909.91
2022-08-17T03:02:04.709Z,97910.63
2022-08-17T03:04:31.337Z,97909.44
2022-08-17T03:07:05.651Z,97910.56
2022-08-17T03:09:32.735Z,97909.28
2022-08-17T03:12:12.137Z,97913.63
2022-08-17T03:14:41.857Z,97916.78
2022-08-17T03:17:17.335Z,97916.34
2022-08-17T03:19:49.424Z,97909.56
2022-08-17T03:22:35.651Z,97920.56
2022-08-17T03:25:02.504Z,97922.19
2022-08-17T03:27:30.476Z,97912.63
2022-08-17T03:29:56.937Z,97919.53
2022-08-17T03:32:24.589Z,97931.25
2022-08-17T03:34:51.016Z,97920.88
2022-08-17T03:37:17.422Z,97921.41
2022-08-17T03:39:43.919Z,97924.84
2022-08-17T03:42:32.214Z,97926.06
2022-08-17T03:44:59.157Z,97925.28
2022-08-17T03:47:44.497Z,97937.50
2022-08-17T03:50:31.785Z,97936.44
2022-08-17T03:53:16.583Z,97945.13
2022-08-17T03:56:01.546Z,97941.16
2022-08-17T03:58:28.118Z,97942.69
2022-08-17T04:00:55.237Z,97938.00
2022-08-17T04:03:21.664Z,97945.13
2022-08-17T04:05:48.145Z,97946.28
2022-08-17T04:08:14.722Z,97949.84
2022-08-17T04:10:44.878Z,97945.13
2022-08-17T04:13:12.437Z,97949.88
2022-08-17T04:15:38.867Z,97964.03
2022-08-17T04:18:07.443Z,97964.41
2022-08-17T04:20:34.371Z,97962.69
2022-08-17T04:23:04.201Z,97972.44
2022-08-17T04:25:34.461Z,97964.53
2022-08-17T04:28:01.353Z,97975.53
2022-08-17T04:30:31.169Z,97972.44
2022-08-17T04:33:05.792Z,97972.44
2022-08-17T04:35:36.945Z,97973.63
2022-08-17T04:38:03.772Z,97979.16
2022-08-17T04:40:48.871Z,97983.56
2022-08-17T04:43:20.537Z,97987.50
2022-08-17T04:46:07.920Z,97990.19
2022-08-17T04:48:40.227Z,97993.75
2022-08-17T04:51:11.541Z,97995.66
2022-08-17T04:53:40.081Z,98003.13
2022-08-17T04:56:06.766Z,97995.28
2022-08-17T04:58:33.720Z,97997.72
2022-08-17T05:01:00.570Z,97996.25
2022-08-17T05:03:27.830Z,97998.63
2022-08-17T05:05:56.964Z,97993.91
2022-08-17T05:08:25.286Z,97994.34
2022-08-17T05:10:52.061Z,97993.81
2022-08-17T05:13:26.795Z,98011.47
2022-08-17T05:16:03.589Z,98030.00
2022-08-17T05:18:30.569Z,98019.00
2022-08-17T05:20:57.338Z,98023.78
2022-08-17T05:23:27.593Z,98020.34
2022-08-17T05:26:10.323Z,98017.03
2022-08-17T05:28:41.619Z,98005.47
2022-08-17T05:31:11.254Z,97993.47
2022-08-17T05:33:42.674Z,98001.25
2022-08-17T05:36:43.331Z,98004.44
2022-08-17T05:39:00.119Z,98018.19
2022-08-17T05:41:26.596Z,98011.97
2022-08-17T05:43:56.201Z,98016.81
2022-08-17T05:46:28.684Z,98012.16
2022-08-17T05:49:03.604Z,98013.56
2022-08-17T05:51:48.640Z,97992.13
2022-08-17T05:54:52.715Z,98007.94
2022-08-17T05:57:30.457Z,98013.63
2022-08-17T06:00:07.425Z,98015.06
2022-08-17T06:02:58.095Z,98018.06
2022-08-17T06:05:36.681Z,98022.28
2022-08-17T06:08:21.939Z,98015.41
2022-08-17T06:11:02.504Z,98019.16
2022-08-17T06:13:47.247Z,98027.94
2022-08-17T06:16:31.145Z,98041.75
2022-08-17T06:19:04.220Z,98047.16
2022-08-17T06:21:44.314Z,98041.16
2022-08-17T06:24:39.322Z,98049.06
2022-08-17T06:27:30.381Z,98046.88
2022-08-17T06:30:11.026Z,98064.38
2022-08-17T06:32:39.888Z,98057.78
2022-08-17T06:35:11.038Z,98047.16
2022-08-17T06:38:33.976Z,98048.41
2022-08-17T06:41:16.300Z,98040.06
2022-08-17T06:44:09.853Z,98052.31
2022-08-17T06:46:46.242Z,98060.31
2022-08-17T06:49:34.236Z,98066.72
2022-08-17T06:52:45.403Z,98063.63
2022-08-17T06:55:18.056Z,98073.13
2022-08-17T06:57:59.734Z,98060.91
2022-08-17T07:00:38.224Z,98053.81
2022-08-17T07:03:08.286Z,98049.44
2022-08-17T07:05:44.463Z,98048.66
2022-08-17T07:08:19.718Z,98039.56
2022-08-17T07:10:52.510Z,98035.22
2022-08-17T07:13:37.916Z,98037.94
2022-08-17T07:16:20.417Z,98041.50
2022-08-17T07:18:50.453Z,98038.72
2022-08-17T07:21:28.452Z,98041.84
2022-08-17T07:24:06.838Z,98032.69
2022-08-17T07:26:33.358Z,98032.19
2022-08-17T07:29:06.034Z,98028.97
2022-08-17T07:31:33.386Z,98028.50
2022-08-17T07:34:08.329Z,98027.28
2022-08-17T07:36:38.040Z,98028.38
2022-08-17T07:39:04.935Z,98021.22
2022-08-17T07:41:53.526Z,98025.06
2022-08-17T07:44:25.335Z,98019.75
2022-08-17T07:47:14.901Z,98013.72
2022-08-17T07:49:46.003Z,98027.38
2022-08-17T07:52:50.658Z,98031.38
2022-08-17T07:55:33.806Z,98037.94
2022-08-17T07:58:00.415Z,98044.41
2022-08-17T08:00:31.495Z,98045.72
2022-08-17T08:03:15.544Z,98059.00
2022-08-17T08:05:56.688Z,98051.56
2022-08-17T08:08:46.413Z,98056.78
2022-08-17T08:11:28.358Z,98057.13
2022-08-17T08:13:54.903Z,98062.34
2022-08-17T08:16:25.693Z,98061.97
2022-08-17T08:18:57.624Z,98061.97
2022-08-17T08:21:49.194Z,98060.00
2022-08-17T08:24:37.379Z,98077.09
2022-08-17T08:27:15.911Z,98085.03
2022-08-17T08:30:04.896Z,98081.88
2022-08-17T08:32:45.972Z,98079.50
2022-08-17T08:35:31.561Z,98075.16
2022-08-17T08:37:58.014Z,98070.81
2022-08-17T08:40:24.826Z,98075.16
2022-08-17T08:43:06.829Z,98085.84
2022-08-17T08:46:08.795Z,98088.22
2022-08-17T08:49:12.387Z,98088.22
2022-08-17T08:51:55.571Z,98094.56
2022-08-17T08:54:35.196Z,98085.06
2022-08-17T08:57:25.675Z,98095.38
2022-08-17T09:00:22.905Z,98093.41
2022-08-17T09:03:13.669Z,98098.56
2022-08-17T09:05:48.433Z,98098.56
2022-08-17T09:08:48.718Z,98100.13
2022-08-17T09:11:24.467Z,98105.69
2022-08-17T09:14:17.147Z,98104.09
2022-08-17T09:17:14.930Z,98104.09
2022-08-17T09:19:51.949Z,98090.63
2022-08-17T09:22:26.679Z,98095.78
2022-08-17T09:25:06.798Z,98088.66
2022-08-17T09:27:46.236Z,98081.91
2022-08-17T09:30:13.519Z,98090.63
2022-08-17T09:32:47.080Z,98102.50
2022-08-17T09:35:36.452Z,98105.66
2022-08-17T09:38:04.179Z,98102.50
2022-08-17T09:40:38.515Z,98120.75
2022-08-17T09:43:31.799Z,98114.38
2022-08-17T09:46:06.219Z,98121.53
2022-08-17T09:48:50.391Z,98123.09
2022-08-17T09:51:32.444Z,98120.75
2022-08-17T09:54:34.897Z,98122.31
2022-08-17T09:57:29.252Z,98126.28
2022-08-17T10:00:16.405Z,98119.53
2022-08-17T10:02:57.477Z,98115.94
2022-08-17T10:05:47.011Z,98110.44
2022-08-17T10:08:32.089Z,98118.31
2022-08-17T10:11:45.680Z,98111.19
2022-08-17T10:14:44.049Z,98114.38
2022-08-17T10:17:25.139Z,98111.56
2022-08-17T10:20:12.406Z,98123.84
2022-08-17T10:23:20.660Z,98142.06
2022-08-17T10:26:15.854Z,98145.22
2022-08-17T10:29:01.605Z,98139.66
2022-08-17T10:31:35.184Z,98143.59
2022-08-17T10:34:11.258Z,98149.56
2022-08-17T10:37:12.111Z,98151.56
2022-08-17T10:39:52.214Z,98152.00
2022-08-17T10:42:36.759Z,98152.78
2022-08-17T10:45:18.295Z,98164.25
2022-08-17T10:48:21.915Z,98168.19
2022-08-17T10:51:02.015Z,98180.06
2022-08-17T10:53:31.396Z,98184.81
2022-08-17T10:56:13.348Z,98176.88
2022-08-17T10:59:00.513Z,98178.47
2022-08-17T11:01:32.922Z,98176.13
2022-08-17T11:04:23.351Z,98173.75
2022-08-17T11:07:25.864Z,98170.59
2022-08-17T11:10:16.993Z,98183.28
2022-08-17T11:13:01.777Z,98188.44
2022-08-17T11:15:53.196Z,98193.97
2022-08-17T11:18:28.872Z,98214.22
2022-08-17T11:21:17.366Z,98218.22
2022-08-17T11:24:24.310Z,98198.38
2022-08-17T11:27:19.528Z,98207.88
2022-08-17T11:30:06.253Z,98214.19
2022-08-17T11:32:52.929Z,98205.44
2022-08-17T11:35:21.462Z,98205.41
2022-08-17T11:38:28.411Z,98209.31
2022-08-17T11:41:01.040Z,98218.00
2022-08-17T11:43:48.814Z,98214.06
2022-08-17T11:47:07.991Z,98220.78
2022-08-17T11:50:04.750Z,98216.44
2022-08-17T11:52:48.979Z,98218.81
2022-08-17T11:55:37.551Z,98213.25
2022-08-17T11:58:37.774Z,98208.94
2022-08-17T12:01:10.399Z,98217.25
2022-08-17T12:03:42.390Z,98211.34
2022-08-17T12:06:31.206Z,98207.78
2022-08-17T12:09:06.991Z,98196.75
2022-08-17T12:11:55.158Z,98193.59
2022-08-17T12:15:07.956Z,98188.84
2022-08-17T12:17:39.551Z,98181.72
2022-08-17T12:20:21.379Z,98176.19
2022-08-17T12:22:57.482Z,98165.88
2022-08-17T12:25:41.362Z,98156.38
2022-08-17T12:28:31.094Z,98165.09
2022-08-17T12:31:21.687Z,98166.66
2022-08-17T12:33:49.920Z,98161.94
2022-08-17T12:36:20.850Z,98157.59
2022-08-17T12:39:14.201Z,98144.50
2022-08-17T12:41:46.777Z,98143.66
2022-08-17T12:44:29.106Z,98139.69
2022-08-17T12:47:07.710Z,98133.31
2022-08-17T12:49:40.866Z,98132.91
2022-08-17T12:52:19.604Z,98132.09
2022-08-17T12:55:05.580Z,98131.69
2022-08-17T12:57:43.681Z,98122.56
2022-08-17T13:00:28.285Z,98111.00
2022-08-17T13:02:59.514Z,98106.22
2022-08-17T13:05:30.828Z,98095.47
2022-08-17T13:07:59.266Z,98092.22
2022-08-17T13:10:32.858Z,98080.56
2022-08-17T13:13:05.131Z,98061.16
2022-08-17T13:15:44.459Z,98065.09
2022-08-17T13:18:35.824Z,98069.34
2022-08-17T13:21:02.674Z,98063.53
2022-08-17T13:23:33.844Z,98078.31
2022-08-17T13:26:16.980Z,98066.88
2022-08-17T13:28:49.695Z,98071.00
2022-08-17T13:31:30.230Z,98074.25
2022-08-17T13:34:18.765Z,98070.03
2022-08-17T13:36:46.973Z,98064.28
2022-08-17T13:39:23.354Z,98055.31
2022-08-17T13:41:52.501Z,98056.69
2022-08-17T13:44:39.130Z,98051.59
2022-08-17T13:47:17.050Z,98055.84
2022-08-17T13:49:48.335Z,98053.13
2022-08-17T13:52:34.788Z,98057.22
2022-08-17T13:55:06.612Z,98056.19
2022-08-17T13:57:35.216Z,98057.34
2022-08-17T14:00:30.092Z,98053.59
2022-08-17T14:02:58.225Z,98053.34
2022-08-17T14:05:28.294Z,98053.00
2022-08-17T14:07:57.465Z,98048.59
2022-08-17T14:10:25.384Z,98037.78
2022-08-17T14:12:52.789Z,98037.50
2022-08-17T14:15:56.124Z,98027.41
2022-08-17T14:18:11.187Z,98014.38
2022-08-17T14:20:40.645Z,98008.78
2022-08-17T14:23:08.312Z,98002.88
2022-08-17T14:25:34.911Z,97993.72
2022-08-17T14:28:01.768Z,97985.44
2022-08-17T14:30:28.994Z,97985.44
2022-08-17T14:32:57.902Z,97990.69
2022-08-17T14:35:24.959Z,98005.28
2022-08-17T14:37:57.701Z,98004.56
2022-08-17T14:40:25.028Z,98002.06
2022-08-17T14:42:53.470Z,98000.34
2022-08-17T14:45:29.938Z,98001.06
2022-08-17T14:47:58.964Z,98000.91
2022-08-17T14:50:25.451Z,97988.28
2022-08-17T14:52:58.222Z,97999.09
2022-08-17T14:55:26.105Z,97992.72
2022-08-17T14:57:52.644Z,98000.19
2022-08-17T15:00:19.397Z,97998.34
2022-08-17T15:02:53.753Z,98009.75
2022-08-17T15:05:23.053Z,98010.94
2022-08-17T15:07:49.792Z,97992.91
2022-08-17T15:10:17.638Z,97998.78
2022-08-17T15:12:44.141Z,97996.63
2022-08-17T15:15:13.898Z,97996.00
2022-08-17T15:17:43.965Z,97999.50
2022-08-17T15:20:21.844Z,98000.88
2022-08-17T15:22:55.168Z,97996.91
2022-08-17T15:25:22.514Z,97997.41
2022-08-17T15:27:49.352Z,97983.03
2022-08-17T15:30:16.764Z,97993.63
2022-08-17T15:32:51.017Z,97989.34
2022-08-17T15:35:26.929Z,97986.06
2022-08-17T15:37:55.626Z,97976.78
2022-08-17T15:40:22.132Z,97976.34
2022-08-17T15:42:49.226Z,97976.34
2022-08-17T15:45:16.897Z,97981.34
2022-08-17T15:47:46.517Z,97971.31
2022-08-17T15:50:13.163Z,97985.34
2022-08-17T15:52:41.619Z,97981.56
2022-08-17T15:55:13.649Z,97984.31
2022-08-17T15:57:40.725Z,97983.13
2022-08-17T16:00:08.696Z,97980.31
2022-08-17T16:03:45.925Z,97970.66
2022-08-17T16:05:26.413Z,97971.22
2022-08-17T16:07:53.602Z,97966.13
2022-08-17T16:10:21.145Z,97968.97
2022-08-17T16:12:49.614Z,97970.72
2022-08-17T16:15:20.298Z,97967.19
2022-08-17T16:17:47.150Z,97966.09
2022-08-17T16:20:20.161Z,97962.59
2022-08-17T16:22:48.810Z,97961.50
2022-08-17T16:25:19.471Z,97951.25
2022-08-17T16:27:49.085Z,97953.38
2022-08-17T16:30:18.201Z,97956.28
2022-08-17T16:32:45.249Z,97953.94
2022-08-17T16:35:17.251Z,97948.41
2022-08-17T16:37:45.611Z,97947.25
2022-08-17T16:40:13.473Z,97947.25
2022-08-17T16:42:40.954Z,97950.50
2022-08-17T16:45:23.509Z,97946.94
2022-08-17T16:47:54.485Z,97945.44
2022-08-17T16:50:23.427Z,97954.28
2022-08-17T16:52:50.548Z,97957.53
2022-08-17T16:55:21.511Z,97956.06
2022-08-17T16:57:50.179Z,97953.38
2022-08-17T17:00:19.436Z,97940.78
2022-08-17T17:02:48.205Z,97944.00
2022-08-17T17:05:36.224Z,97940.91
2022-08-17T17:08:12.744Z,97940.22
2022-08-17T17:10:57.267Z,97933.50
2022-08-17T17:13:32.648Z,97928.44
2022-08-17T17:16:01.457Z,97935.22
2022-08-17T17:18:39.193Z,97940.81
2022-08-17T17:21:09.944Z,97955.22
2022-08-17T17:24:00.152Z,97959.25
2022-08-17T17:26:45.241Z,97953.34
2022-08-17T17:29:48.513Z,97960.56
2022-08-17T17:32:27.897Z,97960.63
2022-08-17T17:35:04.671Z,97958.72
2022-08-17T17:37:34.712Z,97942.91
2022-08-17T17:40:12.838Z,97949.31
2022-08-17T17:42:43.338Z,97940.97
2022-08-17T17:45:21.949Z,97948.13
2022-08-17T17:47:49.139Z,97939.03
2022-08-17T17:50:18.112Z,97930.38
2022-08-17T17:53:20.010Z,97932.81
2022-08-17T17:56:35.593Z,97924.50
2022-08-17T17:59:23.299Z,97932.50
2022-08-17T18:01:57.193Z,97927.41
2022-08-17T18:04:50.539Z,97928.25
2022-08-17T18:07:33.744Z,97936.22
2022-08-17T18:10:29.565Z,97931.13
2022-08-17T18:13:28.813Z,97929.19
2022-08-17T18:16:16.889Z,97927.63
2022-08-17T18:19:18.604Z,97928.50
2022-08-17T18:21:48.508Z,97932.09
2022-08-17T18:24:15.063Z,97938.03
2022-08-17T18:26:52.258Z,97927.03
2022-08-17T18:29:24.483Z,97932.22
2022-08-17T18:32:12.823Z,97931.06
2022-08-17T18:34:48.570Z,97932.22
2022-08-17T18:37:29.613Z,97941.38
2022-08-17T18:39:56.144Z,97940.59
2022-08-17T18:42:26.534Z,97948.53
2022-08-17T18:44:55.297Z,97951.38
2022-08-17T18:47:27.983Z,97952.97
2022-08-17T18:49:58.051Z,97947.47
2022-08-17T18:52:35.780Z,97959.34
2022-08-17T18:55:38.584Z,97957.00
2022-08-17T18:58:19.683Z,97956.63
2022-08-17T19:00:48.986Z,97957.03
2022-08-17T19:03:15.437Z,97961.38
2022-08-17T19:05:48.102Z,97965.34
2022-08-17T19:08:27.814Z,97975.69
2022-08-17T19:11:06.041Z,97978.88
2022-08-17T19:13:41.486Z,97979.66
2022-08-17T19:16:18.059Z,97986.03
2022-08-17T19:18:53.441Z,97996.34
2022-08-17T19:21:30.378Z,97996.72
2022-08-17T19:24:08.509Z,97993.53
2022-08-17T19:27:11.924Z,97991.13
2022-08-17T19:29:56.520Z,97993.16
2022-08-17T19:32:29.912Z,97993.19
2022-08-17T19:35:00.927Z,97985.63
2022-08-17T19:38:12.949Z,97991.63
2022-08-17T19:40:52.863Z,97984.09
2022-08-17T19:43:51.223Z,97987.69
2022-08-17T19:46:29.920Z,97989.28
2022-08-17T19:49:33.233Z,97981.34
2022-08-17T19:52:27.723Z,97967.13
2022-08-17T19:55:20.634Z,97961.56
2022-08-17T19:57:56.102Z,97967.13
2022-08-17T20:00:26.792Z,97957.25
2022-08-17T20:03:03.928Z,97961.97
2022-08-17T20:06:08.855Z,97968.72
2022-08-17T20:08:40.630Z,97966.72
2022-08-17T20:11:33.981Z,97963.59
2022-08-17T20:14:11.720Z,97962.38
2022-08-17T20:16:40.785Z,97967.53
2022-08-17T20:19:28.940Z,97980.56
2022-08-17T20:22:11.720Z,97989.31
2022-08-17T20:24:53.711Z,97984.94
2022-08-17T20:27:31.902Z,97982.97
2022-08-17T20:30:13.039Z,97981.78
2022-08-17T20:32:48.851Z,97988.88
2022-08-17T20:35:20.599Z,97996.03
2022-08-17T20:38:11.348Z,97994.06
2022-08-17T20:40:59.689Z,97995.63
2022-08-17T20:43:35.532Z,97989.72
2022-08-17T20:46:28.415Z,97986.16
2022-08-17T20:48:59.822Z,97982.16
2022-08-17T20:52:01.459Z,97983.75
2022-08-17T20:54:43.147Z,97993.66
2022-08-17T20:57:32.580Z,98008.31
2022-08-17T21:00:07.447Z,98010.28
2022-08-17T21:02:34.013Z,98015.38
2022-08-17T21:05:07.229Z,98020.16
2022-08-17T21:07:43.629Z,98025.69
2022-08-17T21:10:14.988Z,98027.66
2022-08-17T21:13:04.426Z,98036.34
2022-08-17T21:15:54.383Z,98043.91
2022-08-17T21:18:58.720Z,98037.56
2022-08-17T21:21:46.609Z,98034.78
2022-08-17T21:24:52.474Z,98034.41
2022-08-17T21:27:46.874Z,98031.25
2022-08-17T21:30:47.497Z,98028.06
2022-08-17T21:33:20.088Z,98033.22
2022-08-17T21:36:23.785Z,98032.81
2022-08-17T21:38:53.397Z,98033.59
2022-08-17T21:41:35.150Z,98036.38
2022-08-17T21:44:20.689Z,98041.91
2022-08-17T21:46:53.307Z,98049.44
2022-08-17T21:49:26.580Z,98052.19
2022-08-17T21:51:56.528Z,98057.34
2022-08-17T21:54:35.642Z,98066.81
2022-08-17T21:57:06.379Z,98077.13
2022-08-17T21:59:41.939Z,98089.81
2022-08-17T22:02:20.010Z,98099.28
2022-08-17T22:05:06.731Z,98101.66
2022-08-17T22:07:45.774Z,98104.03
2022-08-17T22:10:51.364Z,98111.91
2022-08-17T22:13:29.640Z,98119.03
2022-08-17T22:16:29.032Z,98135.63
2022-08-17T22:18:58.244Z,98145.13
2022-08-17T22:21:25.565Z,98153.84
2022-08-17T22:24:04.546Z,98168.88
2022-08-17T22:27:08.209Z,98175.56
2022-08-17T22:29:52.916Z,98194.13
2022-08-17T22:32:35.004Z,98207.56
2022-08-17T22:35:39.053Z,98213.78
2022-08-17T22:38:20.818Z,98231.03
2022-08-17T22:40:50.988Z,98249.16
2022-08-17T22:43:27.481Z,98263.34
2022-08-17T22:45:59.912Z,98255.38
2022-08-17T22:48:29.185Z,98262.78
2022-08-17T22:51:21.069Z,98253.56
2022-08-17T22:54:12.105Z,98257.50
2022-08-17T22:57:05.283Z,98259.44
2022-08-17T22:59:44.196Z,98266.13
2022-08-17T23:02:22.318Z,98263.69
2022-08-17T23:05:10.051Z,98273.16
2022-08-17T23:07:36.630Z,98269.16
2022-08-17T23:10:06.522Z,98279.41
2022-08-17T23:12:38.794Z,98278.16
2022-08-17T23:15:12.700Z,98293.41
2022-08-17T23:17:39.131Z,98302.03
2022-08-17T23:20:08.292Z,98299.63
2022-08-17T23:22:44.681Z,98306.72
2022-08-17T23:25:32.080Z,98289.38
2022-08-17T23:28:01.467Z,98285.72
2022-08-17T23:30:35.093Z,98292.28
2022-08-17T23:33:08.267Z,98291.75
2022-08-17T23:35:39.771Z,98292.88
2022-08-17T23:38:09.054Z,98295.94
2022-08-17T23:40:35.793Z,98298.69
2022-08-17T23:43:06.046Z,98297.81
2022-08-17T23:45:50.233Z,98293.84
2022-08-17T23:48:30.309Z,98283.44
2022-08-17T23:51:05.805Z,98276.34
2022-08-17T23:53:34.815Z,98281.13
2022-08-17T23:56:09.710Z,98284.31
2022-08-17T23:58:42.221Z,98280.28
